createdAt,value
2023-02-14T06:19:02.793Z,-1.07
2023-02-14T06:29:02.702Z,-1.36
2023-02-14T06:39:02.692Z,-1.21
2023-02-14T06:49:02.861Z,-1.12
2023-02-14T06:59:02.914Z,-1.27
2023-02-14T07:09:02.982Z,-1.30
2023-02-14T07:19:02.850Z,-1.30
2023-02-14T07:29:02.893Z,-1.39
2023-02-14T07:39:02.981Z,-1.29
2023-02-14T07:49:02.779Z,-1.28
2023-02-14T07:59:02.920Z,-0.89
2023-02-14T08:09:02.736Z,-0.75
2023-02-14T08:19:02.841Z,-0.16
2023-02-14T08:29:02.871Z,0.24
2023-02-14T08:39:03.011Z,0.89
2023-02-14T08:49:03.175Z,1.23
2023-02-14T08:59:03.899Z,1.46
2023-02-14T09:09:03.267Z,1.90
2023-02-14T09:19:03.465Z,2.57
2023-02-14T09:29:03.299Z,2.91
2023-02-14T09:39:03.267Z,3.46
2023-02-14T09:49:03.424Z,3.99
2023-02-14T09:59:03.278Z,4.51
2023-02-14T10:09:03.363Z,5.23
2023-02-14T10:19:03.384Z,5.71
2023-02-14T10:29:03.275Z,6.15
2023-02-14T10:39:03.332Z,7.05
2023-02-14T10:49:03.297Z,7.15
2023-02-14T10:59:03.263Z,7.27
2023-02-14T11:09:03.483Z,7.73
2023-02-14T11:19:03.459Z,7.65
2023-02-14T11:29:03.486Z,8.34
2023-02-14T11:39:03.407Z,8.85
2023-02-14T11:49:03.409Z,9.00
2023-02-14T11:59:03.505Z,9.41
2023-02-14T12:09:03.386Z,9.52
2023-02-14T12:19:03.388Z,9.89
2023-02-14T12:29:03.420Z,9.87
2023-02-14T12:39:03.295Z,9.35
2023-02-14T12:49:03.531Z,9.71
2023-02-14T12:59:03.528Z,9.76
2023-02-14T13:09:03.522Z,9.79
2023-02-14T13:19:03.575Z,9.84
2023-02-14T13:29:03.677Z,9.71
2023-02-14T13:39:03.659Z,9.98
2023-02-14T13:49:03.518Z,10.14
2023-02-14T13:59:03.653Z,10.12
2023-02-14T14:09:03.572Z,10.04
2023-02-14T14:19:03.843Z,9.94
2023-02-14T14:29:03.624Z,10.01
2023-02-14T14:39:03.575Z,9.98
2023-02-14T14:49:03.642Z,9.97
2023-02-14T14:59:03.723Z,9.90
2023-02-14T15:09:03.744Z,9.73
2023-02-14T15:19:03.665Z,9.54
2023-02-14T15:29:03.712Z,9.38
2023-02-14T15:39:03.586Z,8.97
2023-02-14T15:49:03.709Z,8.58
2023-02-14T15:59:03.612Z,8.19
2023-02-14T16:09:03.703Z,7.63
2023-02-14T16:19:03.626Z,7.16
2023-02-14T16:29:03.743Z,6.80
2023-02-14T16:39:03.654Z,6.54
2023-02-14T16:49:03.745Z,6.19
2023-02-14T16:59:03.804Z,5.77
2023-02-14T17:09:03.637Z,5.29
2023-02-14T17:19:03.778Z,4.98
2023-02-14T17:29:03.570Z,4.50
2023-02-14T17:39:03.713Z,3.91
2023-02-14T17:49:03.882Z,3.70
2023-02-14T17:59:03.902Z,3.47
2023-02-14T18:09:03.734Z,3.26
2023-02-14T18:19:03.891Z,3.01
2023-02-14T18:29:03.938Z,2.79
2023-02-14T18:39:03.868Z,2.77
2023-02-14T18:49:03.827Z,2.69
2023-02-14T18:59:03.944Z,2.60
2023-02-14T19:09:03.873Z,2.52
2023-02-14T19:19:03.844Z,2.39
